Time;durP1;ratioP1;P1;durP2;ratioP2;P2;SDS_P1;SDS_P2;PMS_P1;PMS_P2;Temp;Humidity;BMP_temperature;BMP_pressure;BME280_temperature;BME280_humidity;BME280_pressure;Samples;Min_cycle;Max_cycle;Signal;HPM_P1;HPM_P2
2021/12/31 00:01:38;;;;;;;3.73;1.70;;;;;;;12.46;100.00;100635.50;4978402;28;20218;-64
2021/12/31 00:04:04;;;;;;;3.77;1.40;;;;;;;12.39;100.00;100638.41;5009088;28;20171;-64
2021/12/31 00:06:29;;;;;;;2.07;1.47;;;;;;;12.56;100.00;100637.47;5002139;28;20177;-64
2021/12/31 00:08:54;;;;;;;3.30;1.80;;;;;;;12.62;100.00;100638.09;5010207;28;20202;-64
2021/12/31 00:11:20;;;;;;;5.90;2.80;;;;;;;12.51;100.00;100641.25;5020619;28;20367;-65
2021/12/31 00:13:45;;;;;;;3.27;1.63;;;;;;;12.55;100.00;100645.31;5035041;28;20173;-64
2021/12/31 00:16:10;;;;;;;4.87;1.70;;;;;;;12.49;100.00;100636.16;5028371;28;20221;-65
2021/12/31 00:18:35;;;;;;;5.27;2.20;;;;;;;12.51;100.00;100636.91;5036381;28;20200;-64
2021/12/31 00:21:02;;;;;;;5.07;2.57;;;;;;;12.51;100.00;100644.66;5010074;28;20229;-65
2021/12/31 00:23:27;;;;;;;5.83;1.90;;;;;;;12.57;100.00;100648.66;5015666;28;20191;-69
2021/12/31 00:25:54;;;;;;;5.20;2.17;;;;;;;12.62;100.00;100645.81;5010012;28;20292;-63
2021/12/31 00:28:19;;;;;;;3.47;1.60;;;;;;;12.69;100.00;100650.56;5017831;28;20206;-65
2021/12/31 00:30:51;;;;;;;5.13;1.90;;;;;;;12.73;100.00;100652.06;4985257;28;20610;-64
2021/12/31 00:33:16;;;;;;;2.37;1.93;;;;;;;12.77;100.00;100642.41;5019384;28;20256;-64
2021/12/31 00:35:41;;;;;;;3.07;1.80;;;;;;;12.64;100.00;100641.41;5009777;28;20178;-64
2021/12/31 00:38:08;;;;;;;5.10;2.07;;;;;;;12.69;100.00;100644.56;5009655;28;20276;-63
2021/12/31 00:40:33;;;;;;;6.07;2.00;;;;;;;12.68;100.00;100641.16;5003681;28;20645;-63
2021/12/31 00:42:58;;;;;;;6.27;2.00;;;;;;;12.61;100.00;100642.41;5021023;28;20261;-64
2021/12/31 00:45:24;;;;;;;2.47;1.83;;;;;;;12.41;100.00;100649.47;5008295;28;20263;-64
2021/12/31 00:47:50;;;;;;;3.40;2.20;;;;;;;12.52;100.00;100643.72;5010026;28;20575;-65
2021/12/31 00:50:16;;;;;;;5.97;2.00;;;;;;;12.41;100.00;100636.56;5001769;28;20269;-63
2021/12/31 00:52:41;;;;;;;5.93;2.50;;;;;;;12.34;100.00;100636.97;5023152;28;20364;-64
2021/12/31 00:55:08;;;;;;;6.13;2.33;;;;;;;12.40;100.00;100634.91;5009360;28;20167;-64
2021/12/31 00:57:34;;;;;;;6.30;2.33;;;;;;;12.39;100.00;100629.81;5003280;28;20271;-63
2021/12/31 00:59:59;;;;;;;7.13;2.50;;;;;;;12.39;100.00;100624.66;5011337;28;20179;-64
2021/12/31 01:02:27;;;;;;;5.10;2.20;;;;;;;12.32;100.00;100629.31;5009791;28;20223;-64
2021/12/31 01:04:53;;;;;;;8.77;2.53;;;;;;;12.34;100.00;100626.66;4993623;28;20176;-63
2021/12/31 01:07:19;;;;;;;7.63;2.40;;;;;;;12.27;100.00;100621.00;5009072;28;20174;-64
2021/12/31 01:09:44;;;;;;;4.90;2.50;;;;;;;12.19;100.00;100626.59;5000084;28;20175;-64
2021/12/31 01:12:11;;;;;;;4.77;2.80;;;;;;;12.24;100.00;100627.16;4999106;28;20299;-63
2021/12/31 01:14:40;;;;;;;6.27;2.30;;;;;;;12.31;100.00;100634.56;4993494;28;20183;-63
2021/12/31 01:17:09;;;;;;;4.17;2.33;;;;;;;12.22;100.00;100631.56;4992253;28;20577;-64
2021/12/31 01:19:46;;;;;;;6.60;2.53;;;;;;;12.25;100.00;100640.88;4993640;28;20183;-65
2021/12/31 01:22:28;;;;;;;7.20;2.90;;;;;;;11.98;100.00;100635.44;4993848;28;20296;-63
2021/12/31 01:24:53;;;;;;;7.40;2.60;;;;;;;12.17;100.00;100636.13;4993500;28;20539;-64
2021/12/31 01:27:19;;;;;;;5.87;2.60;;;;;;;11.88;100.00;100635.88;5011433;28;20194;-64
2021/12/31 01:29:44;;;;;;;9.87;2.83;;;;;;;11.93;100.00;100641.63;5012874;28;20225;-63
2021/12/31 01:32:10;;;;;;;7.53;2.87;;;;;;;12.00;100.00;100647.31;5018342;28;20221;-63
2021/12/31 01:34:36;;;;;;;5.40;2.93;;;;;;;12.04;100.00;100646.25;5012697;28;20175;-64
2021/12/31 01:37:02;;;;;;;5.20;2.70;;;;;;;12.08;100.00;100645.19;5012764;28;20206;-64
2021/12/31 01:39:28;;;;;;;9.07;2.60;;;;;;;12.17;100.00;100643.03;5012810;28;20205;-65
2021/12/31 01:41:57;;;;;;;5.50;2.50;;;;;;;12.23;100.00;100648.72;5016855;28;20226;-65
2021/12/31 01:44:26;;;;;;;8.97;2.83;;;;;;;12.26;100.00;100648.53;5013167;28;20175;-64
2021/12/31 01:47:00;;;;;;;5.80;3.43;;;;;;;12.23;100.00;100648.72;5012609;28;20182;-63
2021/12/31 01:49:34;;;;;;;9.43;3.03;;;;;;;12.10;100.00;100658.81;5012499;28;20709;-64
2021/12/31 01:51:59;;;;;;;5.13;2.87;;;;;;;12.06;100.00;100648.75;5017420;28;20226;-63
2021/12/31 01:54:25;;;;;;;7.20;2.50;;;;;;;12.06;100.00;100656.50;5012770;28;20547;-64
2021/12/31 01:56:53;;;;;;;5.50;2.50;;;;;;;12.11;100.00;100652.75;5012448;28;20249;-64
2021/12/31 01:59:18;;;;;;;6.17;2.83;;;;;;;12.09;100.00;100657.19;5012405;28;20194;-64
2021/12/31 02:01:45;;;;;;;7.83;3.17;;;;;;;12.13;100.00;100655.28;5015455;28;20232;-64
2021/12/31 02:04:11;;;;;;;9.23;2.87;;;;;;;12.05;100.00;100654.81;5014180;28;20171;-64
2021/12/31 02:06:36;;;;;;;7.10;3.10;;;;;;;12.13;100.00;100665.59;5009543;28;20197;-64
2021/12/31 02:09:04;;;;;;;6.30;3.07;;;;;;;12.01;100.00;100668.81;5012638;28;20277;-64
2021/12/31 02:11:29;;;;;;;8.33;2.93;;;;;;;12.05;100.00;100667.72;4985988;28;20273;-64
2021/12/31 02:13:56;;;;;;;6.67;2.53;;;;;;;12.19;100.00;100661.84;4996572;28;20656;-64
2021/12/31 02:16:22;;;;;;;7.93;2.73;;;;;;;12.25;100.00;100661.50;4992353;28;20179;-65
2021/12/31 02:18:47;;;;;;;5.47;2.50;;;;;;;12.19;100.00;100661.84;4992611;28;20195;-64
2021/12/31 02:21:13;;;;;;;6.83;2.80;;;;;;;12.19;100.00;100662.69;4991709;28;20301;-65
2021/12/31 02:23:48;;;;;;;6.33;3.10;;;;;;;12.11;100.00;100662.25;4997973;28;20569;-64
2021/12/31 02:26:14;;;;;;;6.00;2.50;;;;;;;12.02;100.00;100660.97;5001682;28;20578;-65
2021/12/31 02:28:40;;;;;;;6.53;2.63;;;;;;;12.17;100.00;100661.06;5011996;28;20203;-64
2021/12/31 02:31:06;;;;;;;6.53;2.73;;;;;;;12.17;100.00;100659.34;5010002;28;20257;-64
2021/12/31 02:33:33;;;;;;;8.97;2.80;;;;;;;12.17;100.00;100667.09;5018791;28;20183;-64
2021/12/31 02:36:04;;;;;;;4.13;2.50;;;;;;;12.06;100.00;100654.75;5011561;28;20185;-64
2021/12/31 02:38:30;;;;;;;4.17;2.30;;;;;;;12.09;100.00;100662.34;5011146;28;20741;-63
2021/12/31 02:40:55;;;;;;;8.77;2.77;;;;;;;12.08;100.00;100659.81;5008179;28;20217;-64
2021/12/31 02:43:21;;;;;;;6.07;2.57;;;;;;;11.96;100.00;100661.28;5019746;28;20205;-63
2021/12/31 02:45:47;;;;;;;4.80;2.40;;;;;;;12.04;100.00;100668.63;5011450;28;20183;-64
2021/12/31 02:48:13;;;;;;;6.73;3.00;;;;;;;12.04;100.00;100661.72;5011227;28;20195;-64
2021/12/31 02:50:41;;;;;;;6.57;2.57;;;;;;;12.15;100.00;100661.16;5006226;28;20333;-65
2021/12/31 02:53:08;;;;;;;5.83;2.50;;;;;;;12.17;100.00;100661.94;5021609;28;20175;-64
2021/12/31 02:55:39;;;;;;;6.17;2.63;;;;;;;12.07;100.00;100666.72;5011188;28;20179;-63
2021/12/31 02:58:05;;;;;;;5.67;2.33;;;;;;;11.91;100.00;100669.22;5010928;28;20221;-64
2021/12/31 03:00:32;;;;;;;6.40;2.50;;;;;;;11.79;100.00;100665.53;5003671;28;20711;-64
2021/12/31 03:02:59;;;;;;;7.53;2.80;;;;;;;11.69;100.00;100661.75;5001298;28;20179;-63
2021/12/31 03:05:26;;;;;;;7.23;2.80;;;;;;;11.83;100.00;100660.22;5015635;28;20202;-63
2021/12/31 03:07:53;;;;;;;7.87;2.63;;;;;;;11.81;100.00;100651.72;5017723;28;20264;-63
2021/12/31 03:10:21;;;;;;;5.20;2.57;;;;;;;11.77;100.00;100640.72;5003404;28;20262;-63
2021/12/31 03:12:50;;;;;;;3.70;2.30;;;;;;;11.84;100.00;100641.28;5023721;28;20171;-63
2021/12/31 03:15:15;;;;;;;5.63;2.83;;;;;;;11.94;100.00;100645.88;5011036;28;20550;-64
2021/12/31 03:17:42;;;;;;;3.63;2.53;;;;;;;11.92;100.00;100626.22;5010758;28;20207;-63
2021/12/31 03:20:14;;;;;;;4.90;2.40;;;;;;;11.77;100.00;100633.00;5001768;28;20209;-64
2021/12/31 03:22:41;;;;;;;6.13;2.83;;;;;;;11.97;100.00;100633.75;5024084;28;20183;-64
2021/12/31 03:25:08;;;;;;;6.47;2.70;;;;;;;11.99;100.00;100625.03;5010585;28;20262;-64
2021/12/31 03:27:34;;;;;;;3.73;2.80;;;;;;;11.92;100.00;100631.38;5010555;28;20256;-63
2021/12/31 03:29:59;;;;;;;5.83;2.43;;;;;;;11.95;100.00;100626.06;5010806;28;20183;-64
2021/12/31 03:32:25;;;;;;;7.10;3.10;;;;;;;11.77;100.00;100626.13;5016116;28;20325;-64
2021/12/31 03:34:50;;;;;;;6.47;2.87;;;;;;;11.92;100.00;100632.22;5010400;28;20701;-63
2021/12/31 03:37:16;;;;;;;6.17;2.47;;;;;;;12.02;100.00;100634.34;5010480;28;20304;-64
2021/12/31 03:39:41;;;;;;;4.73;2.50;;;;;;;12.06;100.00;100631.53;5010414;28;20179;-63
2021/12/31 03:42:06;;;;;;;4.77;2.73;;;;;;;12.02;100.00;100624.88;5014385;28;20260;-64
2021/12/31 03:44:32;;;;;;;6.03;2.30;;;;;;;11.94;100.00;100624.41;5008158;28;20622;-64
2021/12/31 03:46:57;;;;;;;7.17;3.00;;;;;;;12.00;100.00;100624.13;4990765;28;20179;-64
2021/12/31 03:49:22;;;;;;;5.10;2.90;;;;;;;12.05;100.00;100623.88;5007059;28;20253;-63
2021/12/31 03:51:47;;;;;;;5.90;2.70;;;;;;;12.07;100.00;100622.88;5001484;28;20615;-64
2021/12/31 03:54:13;;;;;;;5.20;2.43;;;;;;;12.08;100.00;100614.25;4998174;28;20217;-64
2021/12/31 03:56:38;;;;;;;7.33;3.37;;;;;;;12.05;100.00;100622.13;5010253;28;20206;-64
2021/12/31 03:59:03;;;;;;;6.33;2.73;;;;;;;12.06;100.00;100617.81;5010140;28;20194;-65
2021/12/31 04:01:29;;;;;;;3.80;2.57;;;;;;;11.95;100.00;100611.44;4988999;28;20287;-64
2021/12/31 04:03:55;;;;;;;8.93;2.60;;;;;;;12.07;100.00;100601.44;4994924;28;20194;-64
2021/12/31 04:06:21;;;;;;;6.63;3.30;;;;;;;11.90;100.00;100603.09;4990792;28;20699;-65
2021/12/31 04:08:48;;;;;;;7.03;3.13;;;;;;;11.87;100.00;100603.28;4990394;28;20199;-64
2021/12/31 04:11:13;;;;;;;7.07;2.60;;;;;;;11.75;100.00;100591.84;4989371;28;20230;-63
2021/12/31 04:13:39;;;;;;;6.20;2.90;;;;;;;11.77;100.00;100590.03;4996439;28;20225;-64
2021/12/31 04:16:05;;;;;;;5.07;2.90;;;;;;;11.67;100.00;100590.56;4988457;28;20280;-65
2021/12/31 04:18:30;;;;;;;5.53;3.20;;;;;;;11.72;100.00;100588.59;4997424;28;20242;-64
2021/12/31 04:20:57;;;;;;;3.93;2.60;;;;;;;11.66;100.00;100584.59;4987451;28;20233;-64
2021/12/31 04:23:28;;;;;;;5.97;2.80;;;;;;;11.42;100.00;100584.09;4998515;28;20175;-65
2021/12/31 04:25:55;;;;;;;7.03;3.20;;;;;;;11.36;100.00;100580.09;4990385;28;20171;-63
2021/12/31 04:28:20;;;;;;;9.87;3.83;;;;;;;11.33;100.00;100580.25;4990292;28;20298;-64
2021/12/31 04:30:46;;;;;;;4.23;2.97;;;;;;;11.30;100.00;100573.50;4966423;28;20225;-63
2021/12/31 04:33:11;;;;;;;6.17;3.23;;;;;;;11.37;100.00;100574.00;5000179;28;20234;-64
2021/12/31 04:35:36;;;;;;;7.93;2.97;;;;;;;11.44;100.00;100579.72;4993041;28;20179;-64
2021/12/31 04:38:02;;;;;;;6.83;3.80;;;;;;;11.45;100.00;100578.81;4994194;28;20298;-64
2021/12/31 04:40:27;;;;;;;7.90;3.27;;;;;;;11.55;100.00;100576.59;4990999;28;20233;-64
2021/12/31 04:42:53;;;;;;;3.60;2.60;;;;;;;11.46;100.00;100580.44;5025500;28;20181;-64
2021/12/31 04:45:19;;;;;;;8.23;3.50;;;;;;;11.58;100.00;100579.00;5013405;28;20210;-65
2021/12/31 04:47:44;;;;;;;5.27;2.80;;;;;;;11.58;100.00;100574.66;5014043;28;20206;-66
2021/12/31 04:50:10;;;;;;;5.60;3.27;;;;;;;11.58;100.00;100573.84;5004636;28;20266;-65
2021/12/31 04:52:35;;;;;;;6.20;3.07;;;;;;;11.56;100.00;100573.09;5027761;28;20182;-65
2021/12/31 04:55:01;;;;;;;4.03;2.70;;;;;;;11.58;100.00;100571.28;5013407;28;20186;-65
2021/12/31 04:57:27;;;;;;;7.47;3.37;;;;;;;11.48;100.00;100568.31;5013539;28;20198;-66
2021/12/31 04:59:52;;;;;;;6.67;2.90;;;;;;;11.40;100.00;100570.44;5013536;28;20254;-66
2021/12/31 05:02:18;;;;;;;5.47;3.30;;;;;;;11.32;100.00;100572.59;5018873;28;20229;-65
2021/12/31 05:04:43;;;;;;;5.30;2.90;;;;;;;11.27;100.00;100572.81;5013222;28;20174;-65
2021/12/31 05:07:08;;;;;;;5.50;3.37;;;;;;;11.23;100.00;100573.88;5013475;28;20170;-65
2021/12/31 05:09:34;;;;;;;5.37;2.90;;;;;;;11.23;100.00;100576.47;5013267;28;20205;-66
2021/12/31 05:12:00;;;;;;;3.43;3.13;;;;;;;11.14;100.00;100581.16;5018049;28;20746;-64
2021/12/31 05:14:25;;;;;;;6.77;3.70;;;;;;;11.11;100.00;100585.63;5013289;28;20176;-65
2021/12/31 05:16:51;;;;;;;6.23;3.40;;;;;;;10.96;100.00;100592.34;5013466;28;20211;-65
2021/12/31 05:19:16;;;;;;;5.80;3.50;;;;;;;10.88;100.00;100586.72;5012596;28;20207;-65
2021/12/31 05:21:41;;;;;;;6.60;3.90;;;;;;;10.90;100.00;100593.50;5012279;28;20229;-64
2021/12/31 05:24:07;;;;;;;6.60;3.20;;;;;;;10.95;100.00;100590.66;5010548;28;20203;-64
2021/12/31 05:26:32;;;;;;;6.83;3.37;;;;;;;10.93;100.00;100589.94;5000751;28;20663;-65
2021/12/31 05:28:57;;;;;;;5.43;3.60;;;;;;;10.79;100.00;100599.16;4992101;28;20232;-65
2021/12/31 05:31:23;;;;;;;4.37;3.10;;;;;;;10.75;100.00;100596.78;5003218;28;20292;-65
2021/12/31 05:33:48;;;;;;;7.07;3.10;;;;;;;10.73;100.00;100602.00;5016393;28;20542;-65
2021/12/31 05:36:13;;;;;;;7.57;3.50;;;;;;;10.76;100.00;100601.84;5011773;28;20270;-65
2021/12/31 05:38:39;;;;;;;5.33;3.03;;;;;;;10.74;100.00;100595.97;5011555;28;20276;-65
2021/12/31 05:41:05;;;;;;;6.07;3.37;;;;;;;10.78;100.00;100604.38;5003301;28;20234;-65
2021/12/31 05:43:30;;;;;;;10.40;3.73;;;;;;;10.64;100.00;100605.84;5009957;28;20221;-65
2021/12/31 05:45:55;;;;;;;7.30;3.53;;;;;;;10.52;100.00;100601.28;5011192;28;20206;-65
2021/12/31 05:48:21;;;;;;;4.30;2.93;;;;;;;10.54;100.00;100603.75;5011574;28;20249;-65
2021/12/31 05:50:46;;;;;;;6.50;3.17;;;;;;;10.49;100.00;100606.53;5007090;28;20553;-65
2021/12/31 05:53:11;;;;;;;7.77;3.33;;;;;;;10.48;100.00;100613.44;5020986;28;20266;-65
2021/12/31 05:55:36;;;;;;;4.80;2.90;;;;;;;10.28;100.00;100611.75;5011141;28;20201;-65
2021/12/31 05:58:02;;;;;;;4.20;2.80;;;;;;;10.21;100.00;100614.63;5011374;28;20203;-65
2021/12/31 06:00:28;;;;;;;7.53;3.37;;;;;;;10.13;100.00;100617.56;5004527;28;20241;-64
2021/12/31 06:02:55;;;;;;;8.13;3.23;;;;;;;9.84;100.00;100611.97;5023204;28;20175;-64
2021/12/31 06:05:23;;;;;;;6.60;3.47;;;;;;;9.76;100.00;100617.44;5011036;28;20175;-65
2021/12/31 06:07:48;;;;;;;5.70;3.10;;;;;;;9.65;100.00;100622.19;5011016;28;20194;-64
2021/12/31 06:10:14;;;;;;;5.30;3.80;;;;;;;9.66;100.00;100617.00;5002816;28;20175;-65
2021/12/31 06:12:41;;;;;;;7.70;3.20;;;;;;;9.58;100.00;100611.34;5024721;28;20174;-65
2021/12/31 06:15:09;;;;;;;6.43;3.13;;;;;;;9.56;100.00;100610.56;5014459;28;20577;-65
2021/12/31 06:17:35;;;;;;;5.87;2.93;;;;;;;9.36;100.00;100607.13;5021201;28;20218;-65
2021/12/31 06:20:01;;;;;;;9.43;3.20;;;;;;;9.40;100.00;100596.69;5022474;28;20181;-64
2021/12/31 06:22:26;;;;;;;5.93;3.30;;;;;;;9.31;100.00;100598.75;5027602;28;20538;-65
2021/12/31 06:24:52;;;;;;;4.87;3.30;;;;;;;9.25;100.00;100595.59;5029974;28;20257;-64
2021/12/31 06:27:18;;;;;;;9.93;4.00;;;;;;;9.17;100.00;100604.44;4979431;28;1318228;-65
2021/12/31 06:29:44;;;;;;;5.77;3.93;;;;;;;9.15;100.00;100605.41;5024032;28;20268;-64
2021/12/31 06:32:10;;;;;;;6.93;3.63;;;;;;;9.14;100.00;100611.44;5036875;28;20677;-64
2021/12/31 06:34:35;;;;;;;8.87;4.10;;;;;;;9.06;100.00;100605.78;5031266;28;20174;-64
2021/12/31 06:37:01;;;;;;;7.83;3.43;;;;;;;9.09;100.00;100615.91;5031431;28;20209;-65
2021/12/31 06:39:26;;;;;;;7.77;3.67;;;;;;;9.00;100.00;100617.13;5031959;28;20251;-65
2021/12/31 06:41:53;;;;;;;5.83;3.97;;;;;;;8.96;100.00;100620.72;5025899;28;20690;-65
2021/12/31 06:44:18;;;;;;;6.47;3.83;;;;;;;8.89;100.00;100617.53;5012372;28;20202;-65
2021/12/31 06:46:44;;;;;;;6.77;3.97;;;;;;;8.82;100.00;100624.66;5011593;28;20663;-65
2021/12/31 06:49:09;;;;;;;7.97;3.43;;;;;;;8.85;100.00;100624.53;5011418;28;20262;-66
2021/12/31 06:51:34;;;;;;;8.40;3.80;;;;;;;8.90;100.00;100626.09;5013176;28;20317;-65
2021/12/31 06:54:00;;;;;;;7.53;3.87;;;;;;;8.87;100.00;100633.00;5014654;28;20611;-66
2021/12/31 06:56:25;;;;;;;4.93;3.83;;;;;;;8.78;100.00;100635.94;5011115;28;20186;-66
2021/12/31 06:58:50;;;;;;;8.17;3.77;;;;;;;8.82;100.00;100627.22;5010869;28;20706;-66
2021/12/31 07:01:16;;;;;;;5.17;4.20;;;;;;;8.71;100.00;100624.25;5010646;28;20233;-66
2021/12/31 07:03:41;;;;;;;9.43;3.83;;;;;;;8.65;100.00;100627.84;5016843;28;20614;-65
2021/12/31 07:06:07;;;;;;;7.63;4.23;;;;;;;8.53;100.00;100629.19;5011310;28;20174;-65
2021/12/31 07:08:32;;;;;;;10.80;4.10;;;;;;;8.49;100.00;100630.16;5011096;28;20193;-65
2021/12/31 07:10:57;;;;;;;7.47;4.00;;;;;;;8.45;100.00;100632.88;5007952;28;20233;-66
2021/12/31 07:13:23;;;;;;;7.60;4.03;;;;;;;8.50;100.00;100633.59;5009785;28;20185;-66
2021/12/31 07:15:50;;;;;;;5.77;4.30;;;;;;;8.46;100.00;100634.53;5010842;28;20250;-67
2021/12/31 07:18:16;;;;;;;7.80;4.63;;;;;;;8.53;100.00;100623.19;5010878;28;20230;-65
2021/12/31 07:20:42;;;;;;;7.73;4.70;;;;;;;8.51;100.00;100630.13;5005896;28;20751;-66
2021/12/31 07:23:10;;;;;;;8.13;4.17;;;;;;;8.52;100.00;100618.94;5021049;28;20182;-66
2021/12/31 07:25:38;;;;;;;8.50;4.30;;;;;;;8.44;100.00;100621.78;5010526;28;20182;-66
2021/12/31 07:28:03;;;;;;;7.63;4.60;;;;;;;8.36;100.00;100618.66;5010729;28;20226;-66
2021/12/31 07:30:29;;;;;;;6.73;4.70;;;;;;;8.36;100.00;100629.75;5002139;28;20695;-67
2021/12/31 07:32:54;;;;;;;8.20;4.50;;;;;;;8.35;100.00;100619.56;5005096;28;20609;-66
2021/12/31 07:35:20;;;;;;;5.50;4.20;;;;;;;8.29;100.00;100617.25;4997587;28;20191;-66
2021/12/31 07:37:45;;;;;;;8.57;4.43;;;;;;;8.28;100.00;100618.94;5013654;28;20269;-66
2021/12/31 07:40:12;;;;;;;6.60;4.07;;;;;;;8.29;100.00;100614.66;4999190;28;20273;-66
2021/12/31 07:42:39;;;;;;;8.63;4.47;;;;;;;8.28;100.00;100621.50;5011216;28;20290;-66
2021/12/31 07:45:05;;;;;;;7.60;4.60;;;;;;;8.27;100.00;100624.13;5009762;28;20651;-63
2021/12/31 07:47:31;;;;;;;12.50;4.93;;;;;;;8.29;100.00;100614.66;5004544;28;20582;-63
2021/12/31 07:49:56;;;;;;;6.87;5.03;;;;;;;8.27;100.00;100613.88;5009679;28;20287;-65
2021/12/31 07:52:22;;;;;;;9.67;4.57;;;;;;;8.29;100.00;100620.63;5002598;28;20674;-66
2021/12/31 07:54:47;;;;;;;7.13;4.43;;;;;;;8.31;100.00;100616.28;5001694;28;20193;-65
2021/12/31 07:57:12;;;;;;;6.20;4.50;;;;;;;8.27;100.00;100619.84;5004351;28;20592;-65
2021/12/31 07:59:38;;;;;;;7.53;5.30;;;;;;;8.16;100.00;100627.06;5009883;28;20237;-66
2021/12/31 08:02:03;;;;;;;8.00;4.70;;;;;;;8.25;100.00;100629.31;4974859;28;20215;-65
2021/12/31 08:04:28;;;;;;;12.37;5.20;;;;;;;8.37;100.00;100635.72;4993187;28;20183;-66
2021/12/31 08:06:54;;;;;;;9.40;5.10;;;;;;;8.45;100.00;100631.16;4992595;28;20168;-66
2021/12/31 08:09:19;;;;;;;11.87;6.30;;;;;;;8.45;100.00;100638.03;4991854;28;20199;-66
2021/12/31 08:11:44;;;;;;;8.30;5.57;;;;;;;8.42;100.00;100631.25;5008926;28;20636;-66
2021/12/31 08:14:09;;;;;;;10.33;5.40;;;;;;;8.47;100.00;100634.53;5013570;28;20280;-66
2021/12/31 08:16:35;;;;;;;11.77;6.23;;;;;;;8.56;100.00;100638.47;5015399;28;20880;-66
2021/12/31 08:19:00;;;;;;;11.67;5.50;;;;;;;8.72;100.00;100631.03;5018308;28;20199;-66
2021/12/31 08:21:25;;;;;;;9.33;5.00;;;;;;;8.83;100.00;100631.47;5016645;28;20221;-66
2021/12/31 08:23:51;;;;;;;10.10;5.97;;;;;;;8.87;100.00;100632.19;5023930;28;20186;-65
2021/12/31 08:26:16;;;;;;;8.97;5.10;;;;;;;8.87;100.00;100627.88;5013332;28;20594;-65
2021/12/31 08:28:41;;;;;;;8.07;5.33;;;;;;;8.96;100.00;100630.97;5011630;28;20273;-66
2021/12/31 08:31:07;;;;;;;7.53;5.63;;;;;;;9.00;100.00;100630.78;4981557;28;20214;-65
2021/12/31 08:33:32;;;;;;;7.33;5.33;;;;;;;9.09;100.00;100624.47;5001179;28;20179;-65
2021/12/31 08:35:57;;;;;;;7.23;5.70;;;;;;;9.16;100.00;100628.44;5007751;28;20190;-65
2021/12/31 08:38:23;;;;;;;11.10;5.00;;;;;;;9.29;100.00;100636.50;5005718;28;20238;-66
2021/12/31 08:40:49;;;;;;;9.37;4.97;;;;;;;9.28;100.00;100629.69;5004322;28;20259;-65
2021/12/31 08:43:14;;;;;;;7.73;4.50;;;;;;;9.39;100.00;100636.97;5030110;28;20182;-65
2021/12/31 08:45:40;;;;;;;6.80;4.23;;;;;;;9.45;100.00;100639.28;5016557;28;20186;-65
2021/12/31 08:48:05;;;;;;;8.23;4.90;;;;;;;9.69;100.00;100639.16;5014290;28;20226;-65
2021/12/31 08:50:31;;;;;;;9.50;4.67;;;;;;;9.76;100.00;100638.00;5005643;28;20234;-66
2021/12/31 08:52:57;;;;;;;9.80;4.87;;;;;;;9.88;100.00;100634.06;5009571;28;20175;-66
2021/12/31 08:55:22;;;;;;;7.67;5.00;;;;;;;10.06;100.00;100634.16;4991914;28;20226;-67
2021/12/31 08:57:48;;;;;;;5.37;4.20;;;;;;;10.67;100.00;100630.59;5005279;28;20221;-66
2021/12/31 09:00:14;;;;;;;7.87;4.00;;;;;;;11.76;100.00;100632.19;4997147;28;20182;-63
2021/12/31 09:02:40;;;;;;;7.50;2.83;;;;;;;13.44;100.00;100628.38;5014985;28;20177;-64
2021/12/31 09:05:07;;;;;;;4.13;2.73;;;;;;;14.57;84.29;100613.81;5008149;28;20273;-65
2021/12/31 09:07:32;;;;;;;5.03;3.03;;;;;;;15.68;78.41;100610.97;5003247;28;20194;-64
2021/12/31 09:09:57;;;;;;;2.80;2.10;;;;;;;16.35;73.45;100615.03;5004317;28;20182;-64
2021/12/31 09:12:23;;;;;;;3.10;2.17;;;;;;;17.42;65.71;100623.78;5034573;28;20656;-65
2021/12/31 09:14:49;;;;;;;5.13;2.33;;;;;;;17.73;61.58;100617.06;5022030;28;20659;-63
2021/12/31 09:17:14;;;;;;;3.20;2.33;;;;;;;19.39;56.02;100609.19;5017408;28;20282;-63
2021/12/31 09:19:39;;;;;;;4.60;2.23;;;;;;;20.15;52.44;100614.06;5028962;28;20223;-64
2021/12/31 09:22:05;;;;;;;3.23;2.27;;;;;;;20.77;50.36;100611.28;5038062;28;20296;-64
2021/12/31 09:24:31;;;;;;;5.07;2.10;;;;;;;21.87;46.90;100624.84;5032392;28;20623;-64
2021/12/31 09:26:56;;;;;;;3.13;2.60;;;;;;;22.11;44.85;100623.47;5013332;28;20266;-64
2021/12/31 09:29:23;;;;;;;6.00;2.03;;;;;;;20.84;47.44;100627.25;5013822;28;20210;-64
2021/12/31 09:31:50;;;;;;;3.70;2.33;;;;;;;19.19;52.01;100621.28;5004486;28;20298;-64
2021/12/31 09:34:15;;;;;;;4.13;2.07;;;;;;;17.47;58.65;100616.47;5004602;28;20197;-65
2021/12/31 09:36:41;;;;;;;5.23;2.33;;;;;;;16.51;62.46;100618.22;5012081;28;20186;-64
2021/12/31 09:39:06;;;;;;;4.43;2.30;;;;;;;15.97;65.53;100619.38;5011475;28;20210;-65
2021/12/31 09:41:32;;;;;;;4.90;2.50;;;;;;;15.13;69.47;100624.94;5002898;28;20233;-63
2021/12/31 09:43:57;;;;;;;8.00;3.00;;;;;;;14.58;73.12;100628.44;5002996;28;20275;-63
2021/12/31 09:46:23;;;;;;;5.40;2.67;;;;;;;14.51;74.13;100633.16;4999168;28;20274;-63
2021/12/31 09:48:49;;;;;;;5.60;2.77;;;;;;;14.11;76.46;100633.84;5004407;28;20190;-64
2021/12/31 09:51:16;;;;;;;7.27;2.83;;;;;;;13.82;79.31;100638.22;5004783;28;20711;-64
2021/12/31 09:53:42;;;;;;;5.40;2.70;;;;;;;13.76;79.79;100643.75;5009423;28;20382;-64
2021/12/31 09:56:08;;;;;;;4.37;2.70;;;;;;;14.06;79.85;100648.00;5005661;28;20282;-63
2021/12/31 09:58:34;;;;;;;2.77;2.33;;;;;;;14.96;76.04;100633.78;5009919;28;21398;-64
2021/12/31 10:01:01;;;;;;;3.40;2.53;;;;;;;15.94;70.02;100643.78;5003157;28;20218;-65
2021/12/31 10:03:29;;;;;;;4.93;2.63;;;;;;;15.40;69.75;100644.75;5029688;28;20188;-63
2021/12/31 10:06:20;;;;;;;4.20;2.50;;;;;;;15.61;67.46;100645.09;5021142;28;20269;-64
2021/12/31 10:08:47;;;;;;;6.97;3.33;;;;;;;14.99;71.64;100636.16;5016263;28;20206;-64
2021/12/31 10:11:20;;;;;;;20.10;16.03;;;;;;;14.61;75.41;100636.84;5031680;28;20229;-73
2021/12/31 10:13:58;;;;;;;195.03;112.50;;;;;;;14.27;77.01;100645.88;5022446;28;20543;-66
2021/12/31 10:16:36;;;;;;;5.50;4.23;;;;;;;14.27;76.49;100657.03;5021029;28;20227;-67
2021/12/31 10:19:07;;;;;;;23.23;17.53;;;;;;;14.03;79.13;100656.78;5020992;28;20701;-67
2021/12/31 10:21:43;;;;;;;6.57;3.13;;;;;;;14.11;79.18;100649.38;5005740;28;20356;-64
2021/12/31 10:24:22;;;;;;;6.57;5.57;;;;;;;14.28;77.77;100661.28;5014873;28;20179;-65
2021/12/31 10:26:48;;;;;;;15.90;14.30;;;;;;;14.50;76.92;100653.03;5016487;28;20190;-67
2021/12/31 10:29:14;;;;;;;70.23;61.67;;;;;;;14.71;75.71;100655.25;5016334;28;20233;-68
2021/12/31 10:31:48;;;;;;;6.87;4.00;;;;;;;14.57;76.25;100663.00;5017105;28;20703;-70
2021/12/31 10:34:31;;;;;;;5.00;3.33;;;;;;;14.46;76.65;100663.66;5019274;28;20293;-66
2021/12/31 10:36:59;;;;;;;17.43;14.07;;;;;;;14.11;77.78;100651.97;5015202;28;20194;-67
2021/12/31 10:39:27;;;;;;;6.20;5.60;;;;;;;13.70;80.41;100663.03;5012510;28;20190;-69
2021/12/31 10:41:59;;;;;;;51.87;45.47;;;;;;;13.96;79.66;100686.53;5018535;28;20633;-66
2021/12/31 10:44:39;;;;;;;44.33;25.57;;;;;;;14.25;77.88;100684.78;5016727;28;20183;-74
2021/12/31 10:47:29;;;;;;;7.87;5.03;;;;;;;14.50;76.80;100660.81;5016839;28;20169;-67
2021/12/31 10:50:04;;;;;;;5.50;3.97;;;;;;;14.26;77.07;100657.97;5020895;28;20206;-67
2021/12/31 10:52:53;;;;;;;4.97;2.60;;;;;;;14.30;76.66;100664.63;5002021;28;20225;-68
2021/12/31 10:57:46;;;;;;;3.17;2.53;;;;;;;14.35;77.94;100675.53;5013430;28;20238;-72
2021/12/31 11:00:12;;;;;;;2.70;2.07;;;;;;;14.56;77.26;100682.06;5004132;28;20179;-71
2021/12/31 11:02:38;;;;;;;4.50;2.60;;;;;;;14.69;76.40;100665.69;5029527;28;20178;-67
2021/12/31 11:05:06;;;;;;;3.33;2.00;;;;;;;14.72;75.46;100637.94;5022839;28;20174;-68
2021/12/31 11:07:32;;;;;;;3.30;2.00;;;;;;;14.29;76.39;100613.78;4940313;28;20207;-70
2021/12/31 11:09:59;;;;;;;4.87;2.30;;;;;;;14.13;78.04;100605.31;4979628;28;20215;-67
2021/12/31 11:12:26;;;;;;;3.60;2.43;;;;;;;13.91;79.19;100624.72;4981974;28;20243;-67
2021/12/31 11:14:52;;;;;;;4.27;2.53;;;;;;;14.14;79.38;100638.00;4972202;28;20199;-67
2021/12/31 11:17:17;;;;;;;2.80;2.60;;;;;;;13.99;79.10;100629.44;4980837;28;20251;-65
2021/12/31 11:19:45;;;;;;;3.17;2.00;;;;;;;13.87;80.30;100624.06;4983360;28;20199;-64